Time;durP1;ratioP1;P1;durP2;ratioP2;P2;SDS_P1;SDS_P2;PMS_P1;PMS_P2;Temp;Humidity;BMP_temperature;BMP_pressure;BME280_temperature;BME280_humidity;BME280_pressure;Samples;Min_cycle;Max_cycle;Signal;HPM_P1;HPM_P2
2022/11/30 00:02:06;;;;;;;45.88;21.92;;;5.90;99.90;;;;;;5029402;28;20527;-64
2022/11/30 00:04:32;;;;;;;45.15;21.35;;;5.80;99.90;;;;;;5011643;28;20054;-64
2022/11/30 00:06:58;;;;;;;55.47;23.58;;;5.80;99.90;;;;;;5029179;28;20052;-64
2022/11/30 00:09:25;;;;;;;47.63;22.25;;;5.80;99.90;;;;;;5012093;28;20061;-64
2022/11/30 00:11:51;;;;;;;48.03;22.67;;;5.80;99.90;;;;;;5028320;28;20467;-64
2022/11/30 00:14:16;;;;;;;45.45;23.08;;;5.80;99.90;;;;;;4996546;28;20055;-65
2022/11/30 00:16:42;;;;;;;46.38;21.77;;;5.90;99.90;;;;;;5028445;28;20133;-65
2022/11/30 00:19:08;;;;;;;44.00;21.73;;;5.90;99.90;;;;;;5025805;28;20061;-64
2022/11/30 00:21:34;;;;;;;46.95;20.95;;;5.90;99.90;;;;;;5028622;28;20740;-64
2022/11/30 00:24:01;;;;;;;48.70;21.98;;;5.90;99.90;;;;;;5013664;28;20041;-65
2022/11/30 00:26:26;;;;;;;44.38;21.45;;;5.90;99.90;;;;;;5011486;28;20759;-65
2022/11/30 00:28:52;;;;;;;45.45;21.38;;;5.90;99.90;;;;;;5026972;28;20048;-65
2022/11/30 00:31:19;;;;;;;48.22;22.02;;;5.90;99.90;;;;;;5028126;28;20037;-65
2022/11/30 00:33:46;;;;;;;47.50;21.13;;;5.80;99.90;;;;;;4997406;28;20482;-66
2022/11/30 00:36:14;;;;;;;45.90;21.58;;;5.80;99.90;;;;;;5025607;28;20387;-65
2022/11/30 00:38:41;;;;;;;46.97;21.60;;;5.80;99.90;;;;;;4993685;28;20045;-65
2022/11/30 00:41:08;;;;;;;47.25;22.30;;;5.80;99.90;;;;;;4994846;28;20049;-64
2022/11/30 00:43:34;;;;;;;45.90;21.63;;;5.80;99.90;;;;;;5012774;28;20055;-66
2022/11/30 00:46:01;;;;;;;40.88;20.48;;;5.80;99.90;;;;;;5029982;28;20049;-64
2022/11/30 00:48:27;;;;;;;46.20;22.98;;;5.80;99.90;;;;;;5026357;28;20046;-65
2022/11/30 00:50:53;;;;;;;46.45;22.92;;;5.80;99.90;;;;;;5008355;28;20057;-65
2022/11/30 00:53:19;;;;;;;44.60;21.13;;;5.90;99.90;;;;;;5023446;28;20110;-65
2022/11/30 00:55:44;;;;;;;41.85;21.20;;;5.80;99.90;;;;;;5028329;28;20049;-65
2022/11/30 00:58:10;;;;;;;44.80;21.33;;;5.90;99.90;;;;;;5012867;28;20495;-64
2022/11/30 01:00:36;;;;;;;42.78;21.08;;;5.90;99.90;;;;;;5029050;28;20049;-65
2022/11/30 01:03:02;;;;;;;43.75;20.15;;;5.80;99.90;;;;;;5028284;28;20156;-65
2022/11/30 01:05:28;;;;;;;47.25;22.02;;;5.90;99.90;;;;;;5028426;28;20514;-65
2022/11/30 01:07:54;;;;;;;42.65;21.33;;;5.90;99.90;;;;;;5027548;28;20120;-64
2022/11/30 01:10:21;;;;;;;43.90;21.38;;;5.90;99.90;;;;;;5028048;28;20379;-65
2022/11/30 01:12:48;;;;;;;46.78;22.67;;;5.80;99.90;;;;;;4979970;28;20557;-66
2022/11/30 01:15:13;;;;;;;43.08;20.85;;;5.80;99.90;;;;;;5029250;28;20045;-65
2022/11/30 01:17:39;;;;;;;45.53;22.42;;;5.80;99.90;;;;;;5028988;28;20870;-65
2022/11/30 01:20:06;;;;;;;49.97;24.40;;;5.80;99.90;;;;;;5025226;28;20129;-65
2022/11/30 01:22:32;;;;;;;40.25;21.00;;;5.80;99.90;;;;;;5012605;28;20045;-64
2022/11/30 01:24:58;;;;;;;41.35;20.20;;;5.90;99.90;;;;;;4995057;28;20044;-65
2022/11/30 01:27:24;;;;;;;42.33;22.17;;;5.90;99.90;;;;;;5012375;28;20364;-64
2022/11/30 01:29:50;;;;;;;47.10;21.90;;;5.90;99.90;;;;;;5009503;28;20053;-65
2022/11/30 01:32:15;;;;;;;42.50;22.30;;;5.90;99.90;;;;;;5012267;28;20115;-65
2022/11/30 01:34:41;;;;;;;39.95;20.55;;;5.90;99.90;;;;;;5029848;28;20068;-65
2022/11/30 01:37:07;;;;;;;41.05;21.50;;;5.90;99.90;;;;;;5022050;28;20065;-64
2022/11/30 01:39:32;;;;;;;41.00;21.08;;;5.90;99.90;;;;;;5028294;28;20057;-65
2022/11/30 01:41:58;;;;;;;42.13;20.88;;;5.90;99.90;;;;;;5026989;28;20041;-65
2022/11/30 01:44:27;;;;;;;42.80;21.08;;;5.90;99.90;;;;;;5028038;28;20377;-65
2022/11/30 01:47:05;;;;;;;;;;;5.90;99.90;;;;;;5012093;28;20045;-66
2022/11/30 01:49:34;;;;;;;42.63;21.15;;;5.90;99.90;;;;;;5028091;28;20027;-65
2022/11/30 01:52:12;;;;;;;41.63;21.33;;;5.90;99.90;;;;;;5028526;28;20045;-65
2022/11/30 01:54:42;;;;;;;43.95;22.17;;;5.90;99.90;;;;;;5028922;28;20049;-65
2022/11/30 01:57:21;;;;;;;44.40;22.77;;;5.90;99.90;;;;;;5021062;28;20049;-64
2022/11/30 01:59:50;;;;;;;45.08;23.35;;;5.90;99.90;;;;;;4998079;28;20045;-65
2022/11/30 02:02:17;;;;;;;48.70;23.00;;;5.90;99.90;;;;;;5012008;28;20041;-65
2022/11/30 02:04:43;;;;;;;46.97;22.70;;;5.90;99.90;;;;;;5028044;28;20513;-64
2022/11/30 02:07:09;;;;;;;45.17;21.77;;;5.90;99.90;;;;;;5004572;28;20316;-65
2022/11/30 02:09:42;;;;;;;39.22;21.13;;;5.90;99.90;;;;;;5026944;28;20049;-65
2022/11/30 02:12:11;;;;;;;45.33;21.58;;;5.90;99.90;;;;;;5025700;28;20053;-65
2022/11/30 02:14:41;;;;;;;42.90;21.58;;;5.90;99.90;;;;;;5011442;28;20059;-65
2022/11/30 02:17:33;;;;;;;47.20;22.65;;;5.90;99.90;;;;;;5011826;28;20475;-65
2022/11/30 02:20:29;;;;;;;46.58;22.20;;;5.90;99.90;;;;;;5027265;28;20049;-65
2022/11/30 02:23:14;;;;;;;54.42;24.60;;;5.90;99.90;;;;;;5026677;28;20413;-64
2022/11/30 02:25:54;;;;;;;52.58;25.25;;;5.90;99.90;;;;;;5028545;28;20088;-65
2022/11/30 02:28:20;;;;;;;49.75;23.83;;;5.90;99.90;;;;;;5026967;28;20052;-65
2022/11/30 02:30:46;;;;;;;52.33;23.27;;;5.90;99.90;;;;;;5028159;28;20049;-65
2022/11/30 02:33:14;;;;;;;52.60;24.83;;;5.90;99.90;;;;;;4979455;28;20425;-64
2022/11/30 02:35:41;;;;;;;51.57;24.63;;;5.90;99.90;;;;;;5025249;28;20744;-64
2022/11/30 02:38:07;;;;;;;54.37;24.63;;;5.90;99.90;;;;;;4995901;28;20046;-64
2022/11/30 02:40:33;;;;;;;53.42;25.45;;;5.90;99.90;;;;;;5011182;28;20338;-64
2022/11/30 02:42:59;;;;;;;53.13;25.80;;;5.80;99.90;;;;;;5027721;28;20048;-64
2022/11/30 02:46:07;;;;;;;51.30;26.05;;;5.90;99.90;;;;;;4994492;28;20056;-65
2022/11/30 02:49:16;;;;;;;55.80;26.35;;;5.80;99.90;;;;;;5025869;28;20486;-65
2022/11/30 02:51:42;;;;;;;61.70;27.15;;;5.90;99.90;;;;;;5020157;28;20053;-64
2022/11/30 02:54:07;;;;;;;50.90;25.30;;;5.80;99.90;;;;;;4994955;28;20103;-65
2022/11/30 02:56:33;;;;;;;56.30;24.63;;;5.80;99.90;;;;;;5012812;28;20172;-65
2022/11/30 02:58:59;;;;;;;51.97;25.35;;;5.90;99.90;;;;;;5014877;28;20045;-65
2022/11/30 03:01:25;;;;;;;51.60;24.40;;;5.90;99.90;;;;;;5015253;28;20041;-65
2022/11/30 03:03:50;;;;;;;59.28;26.17;;;5.90;99.90;;;;;;5031477;28;20906;-63
2022/11/30 03:06:16;;;;;;;57.50;25.70;;;5.90;99.90;;;;;;4998646;28;20084;-64
2022/11/30 03:08:42;;;;;;;54.20;26.13;;;5.90;99.90;;;;;;5031571;28;20046;-64
2022/11/30 03:11:07;;;;;;;58.55;26.27;;;5.90;99.90;;;;;;5014554;28;20087;-64
2022/11/30 03:13:33;;;;;;;51.60;24.90;;;5.80;99.90;;;;;;5014952;28;20063;-64
2022/11/30 03:16:09;;;;;;;53.38;26.05;;;5.80;99.90;;;;;;5029947;28;20045;-64
2022/11/30 03:18:35;;;;;;;59.17;26.83;;;5.90;99.90;;;;;;5008968;28;20041;-65
2022/11/30 03:21:05;;;;;;;54.17;26.38;;;5.80;99.90;;;;;;5014729;28;20378;-65
2022/11/30 03:23:31;;;;;;;54.40;27.02;;;5.80;99.90;;;;;;5025502;28;20087;-64
2022/11/30 03:25:58;;;;;;;52.40;23.98;;;5.80;99.90;;;;;;4995038;28;20464;-65
2022/11/30 03:28:24;;;;;;;59.50;26.75;;;5.80;99.90;;;;;;5031022;28;20041;-64
2022/11/30 03:30:50;;;;;;;56.22;25.48;;;5.90;99.90;;;;;;5011849;28;20466;-65
2022/11/30 03:33:16;;;;;;;56.00;27.33;;;5.90;99.90;;;;;;5030728;28;20052;-65
2022/11/30 03:35:43;;;;;;;59.13;27.13;;;5.90;99.90;;;;;;5023899;28;20064;-64
2022/11/30 03:38:09;;;;;;;57.13;27.08;;;5.90;99.90;;;;;;5013204;28;20501;-65
2022/11/30 03:40:37;;;;;;;55.67;26.27;;;5.90;99.90;;;;;;5014414;28;20049;-65
2022/11/30 03:43:03;;;;;;;57.38;26.70;;;5.90;99.90;;;;;;5009055;28;20064;-66
2022/11/30 03:45:29;;;;;;;60.30;27.75;;;5.90;99.90;;;;;;5010725;28;20096;-65
2022/11/30 03:47:54;;;;;;;58.70;27.73;;;5.90;99.90;;;;;;5028959;28;20041;-66
2022/11/30 03:50:20;;;;;;;59.28;26.23;;;5.80;99.90;;;;;;5030857;28;20446;-65
2022/11/30 03:52:46;;;;;;;61.55;26.65;;;5.90;99.90;;;;;;5012864;28;20041;-65
2022/11/30 03:55:12;;;;;;;56.33;26.02;;;5.90;99.90;;;;;;5030681;28;20065;-66
2022/11/30 03:57:37;;;;;;;56.42;27.20;;;5.90;99.90;;;;;;5013095;28;20333;-65
2022/11/30 04:00:05;;;;;;;57.40;27.85;;;5.90;99.90;;;;;;5012532;28;20903;-65
2022/11/30 04:02:31;;;;;;;41.75;20.77;;;5.90;99.90;;;;;;4997841;28;20095;-66
2022/11/30 04:04:57;;;;;;;56.80;26.33;;;5.90;99.90;;;;;;5030795;28;20536;-65
2022/11/30 04:07:22;;;;;;;57.75;26.15;;;5.90;99.90;;;;;;5030471;28;20451;-65
2022/11/30 04:09:48;;;;;;;57.15;26.90;;;5.90;99.90;;;;;;5013860;28;20053;-66
2022/11/30 04:12:14;;;;;;;56.83;26.35;;;5.90;99.90;;;;;;5030079;28;20048;-65
2022/11/30 04:14:40;;;;;;;69.57;29.48;;;5.90;99.90;;;;;;5029225;28;20074;-65
2022/11/30 04:17:05;;;;;;;57.63;27.02;;;5.90;99.90;;;;;;5013697;28;20045;-65
2022/11/30 04:19:31;;;;;;;54.30;25.77;;;5.90;99.90;;;;;;5030878;28;20041;-64
2022/11/30 04:21:57;;;;;;;61.70;29.00;;;5.90;99.90;;;;;;4996155;28;20119;-65
2022/11/30 04:24:23;;;;;;;57.58;26.95;;;5.90;99.90;;;;;;5029852;28;20046;-64
2022/11/30 04:26:48;;;;;;;60.10;27.25;;;5.90;99.90;;;;;;5030174;28;20056;-65
2022/11/30 04:29:14;;;;;;;60.42;28.45;;;5.90;99.90;;;;;;5025911;28;20045;-65
2022/11/30 04:31:40;;;;;;;58.30;28.08;;;5.90;99.90;;;;;;5013424;28;20049;-65
2022/11/30 04:34:05;;;;;;;58.05;26.83;;;5.90;99.90;;;;;;5029368;28;20518;-65
2022/11/30 04:36:31;;;;;;;59.67;28.65;;;5.90;99.90;;;;;;5027196;28;20502;-65
2022/11/30 04:38:57;;;;;;;58.20;29.10;;;5.90;99.90;;;;;;5010633;28;20053;-66
2022/11/30 04:41:22;;;;;;;55.95;25.17;;;5.90;99.90;;;;;;5009924;28;20506;-65
2022/11/30 04:43:48;;;;;;;67.65;29.80;;;5.90;99.90;;;;;;5027056;28;20037;-65
2022/11/30 04:46:14;;;;;;;55.40;26.98;;;5.90;99.90;;;;;;5024613;28;20052;-65
2022/11/30 04:48:40;;;;;;;60.47;27.38;;;5.90;99.90;;;;;;5021591;28;20080;-65
2022/11/30 04:51:07;;;;;;;62.00;28.80;;;5.90;99.90;;;;;;4997516;28;20150;-65
2022/11/30 04:53:33;;;;;;;64.78;28.48;;;6.00;99.90;;;;;;5029728;28;20045;-65
2022/11/30 04:56:04;;;;;;;60.35;28.70;;;5.90;99.90;;;;;;5013034;28;20060;-65
2022/11/30 04:58:31;;;;;;;58.95;27.10;;;5.90;99.90;;;;;;4997127;28;20419;-66
2022/11/30 05:00:57;;;;;;;56.63;27.65;;;6.00;99.90;;;;;;5012858;28;20041;-65
2022/11/30 05:03:23;;;;;;;53.22;25.15;;;5.90;99.90;;;;;;5030200;28;20037;-65
2022/11/30 05:05:48;;;;;;;57.05;28.25;;;5.90;99.90;;;;;;5022901;28;20045;-64
2022/11/30 05:08:14;;;;;;;60.05;28.85;;;6.00;99.90;;;;;;4996528;28;20743;-64
2022/11/30 05:10:41;;;;;;;57.88;28.35;;;5.90;99.90;;;;;;5007676;28;20137;-65
2022/11/30 05:13:06;;;;;;;58.38;28.08;;;5.90;99.90;;;;;;4997045;28;20052;-64
2022/11/30 05:15:32;;;;;;;62.05;28.92;;;6.00;99.90;;;;;;4995144;28;20052;-64
2022/11/30 05:17:59;;;;;;;66.15;29.08;;;5.90;99.90;;;;;;5026298;28;20136;-64
2022/11/30 05:20:25;;;;;;;62.78;29.13;;;6.00;99.90;;;;;;5005656;28;20440;-64
2022/11/30 05:22:51;;;;;;;61.92;29.90;;;6.00;99.90;;;;;;5028241;28;20041;-64
2022/11/30 05:25:16;;;;;;;59.05;28.02;;;6.00;99.90;;;;;;5028844;28;20041;-65
2022/11/30 05:27:42;;;;;;;61.80;28.88;;;6.00;99.90;;;;;;5028013;28;20049;-64
2022/11/30 05:30:09;;;;;;;52.63;26.45;;;6.00;99.90;;;;;;5029076;28;20545;-65
2022/11/30 05:32:34;;;;;;;63.63;28.15;;;6.00;99.90;;;;;;4992192;28;20108;-64
2022/11/30 05:35:00;;;;;;;61.58;27.90;;;6.00;99.90;;;;;;5012819;28;20052;-65
2022/11/30 05:37:26;;;;;;;68.32;29.85;;;6.00;99.90;;;;;;5026337;28;20416;-65
2022/11/30 05:39:52;;;;;;;66.53;31.88;;;6.00;99.90;;;;;;5012033;28;20659;-65
2022/11/30 05:42:18;;;;;;;67.07;30.67;;;6.00;99.90;;;;;;5026818;28;20037;-65
2022/11/30 05:44:43;;;;;;;72.43;31.58;;;5.90;99.90;;;;;;5011812;28;20474;-64
2022/11/30 05:47:09;;;;;;;67.50;30.58;;;6.00;99.90;;;;;;5012223;28;20107;-64
2022/11/30 05:49:35;;;;;;;67.72;30.20;;;6.00;99.90;;;;;;4990503;28;20399;-65
2022/11/30 05:52:01;;;;;;;65.20;29.92;;;6.00;99.90;;;;;;4995436;28;20052;-65
2022/11/30 05:54:26;;;;;;;67.90;31.17;;;6.00;99.90;;;;;;5027271;28;20053;-64
2022/11/30 05:56:54;;;;;;;73.18;33.45;;;6.00;99.90;;;;;;5027486;28;20049;-64
2022/11/30 05:59:19;;;;;;;66.88;30.60;;;6.00;99.90;;;;;;5025329;28;20060;-65
2022/11/30 06:01:45;;;;;;;73.65;32.13;;;6.00;99.90;;;;;;4995342;28;20046;-65
2022/11/30 06:04:12;;;;;;;66.65;30.70;;;6.00;99.90;;;;;;5028394;28;20049;-65
2022/11/30 06:06:38;;;;;;;74.93;33.05;;;6.00;99.90;;;;;;5028119;28;20432;-64
2022/11/30 06:09:04;;;;;;;62.20;28.98;;;6.00;99.90;;;;;;5024533;28;20077;-65
2022/11/30 06:11:30;;;;;;;63.63;29.63;;;6.00;99.90;;;;;;5009493;28;20080;-65
2022/11/30 06:13:55;;;;;;;70.47;32.95;;;6.00;99.90;;;;;;5028240;28;20525;-65
2022/11/30 06:16:21;;;;;;;67.88;31.95;;;6.00;99.90;;;;;;5024843;28;20067;-64
2022/11/30 06:18:47;;;;;;;69.93;30.92;;;6.00;99.90;;;;;;5028770;28;20041;-64
2022/11/30 06:21:13;;;;;;;70.28;31.00;;;6.00;99.90;;;;;;5021911;28;20053;-65
2022/11/30 06:23:38;;;;;;;64.57;29.90;;;6.00;99.90;;;;;;5011853;28;20041;-65
2022/11/30 06:26:06;;;;;;;69.43;32.83;;;6.00;99.90;;;;;;4991014;28;20042;-66
2022/11/30 06:28:32;;;;;;;69.37;30.20;;;6.00;99.90;;;;;;5011604;28;20045;-65
2022/11/30 06:30:59;;;;;;;67.45;29.92;;;6.00;99.90;;;;;;5013649;28;20445;-65
2022/11/30 06:33:25;;;;;;;66.40;29.52;;;6.00;99.90;;;;;;5015873;28;20163;-64
2022/11/30 06:35:50;;;;;;;67.47;30.90;;;6.00;99.90;;;;;;5008541;28;20069;-65
2022/11/30 06:38:16;;;;;;;65.45;29.85;;;6.00;99.90;;;;;;5031171;28;20049;-65
2022/11/30 06:40:45;;;;;;;67.63;30.90;;;6.00;99.90;;;;;;5015537;28;20053;-66
2022/11/30 06:43:11;;;;;;;60.00;28.33;;;6.00;99.90;;;;;;4997236;28;20456;-64
2022/11/30 06:45:38;;;;;;;69.55;29.65;;;6.00;99.90;;;;;;5030801;28;20051;-64
2022/11/30 06:48:04;;;;;;;70.75;30.88;;;6.00;99.90;;;;;;5015391;28;20068;-66
2022/11/30 06:50:30;;;;;;;68.38;31.45;;;6.00;99.90;;;;;;5030644;28;20092;-65
2022/11/30 06:52:55;;;;;;;75.78;31.15;;;6.10;99.90;;;;;;5031561;28;20049;-65
2022/11/30 06:55:24;;;;;;;71.50;31.83;;;6.00;99.90;;;;;;5028051;28;20050;-64
2022/11/30 06:57:50;;;;;;;70.85;30.33;;;6.10;99.90;;;;;;5031871;28;20526;-65
2022/11/30 07:00:16;;;;;;;75.32;30.85;;;6.10;99.90;;;;;;4998543;28;20076;-64
2022/11/30 07:02:42;;;;;;;68.40;31.08;;;6.00;99.90;;;;;;5032303;28;20121;-65
2022/11/30 07:05:08;;;;;;;68.30;31.20;;;6.10;99.90;;;;;;5031018;28;20132;-64
2022/11/30 07:07:33;;;;;;;68.93;32.25;;;6.10;99.90;;;;;;5030079;28;20041;-65
2022/11/30 07:09:59;;;;;;;71.07;30.33;;;6.00;99.90;;;;;;5031572;28;20188;-65
2022/11/30 07:12:25;;;;;;;68.20;31.38;;;6.10;99.90;;;;;;5031633;28;20053;-69
2022/11/30 07:14:55;;;;;;;68.72;31.50;;;6.10;99.90;;;;;;5022334;28;20077;-65
2022/11/30 07:17:20;;;;;;;71.20;30.73;;;6.10;99.90;;;;;;5031552;28;20049;-64
2022/11/30 07:19:46;;;;;;;73.05;32.05;;;6.10;99.90;;;;;;5014884;28;20372;-65
2022/11/30 07:22:12;;;;;;;72.00;31.67;;;6.10;99.90;;;;;;5031037;28;20146;-65
2022/11/30 07:27:22;;;;;;;72.30;30.45;;;6.10;99.90;;;;;;5024551;28;20041;-65
2022/11/30 07:29:50;;;;;;;71.75;32.00;;;6.10;99.90;;;;;;5014724;28;20041;-65
2022/11/30 07:32:16;;;;;;;66.63;30.10;;;6.10;99.90;;;;;;5027755;28;20060;-64
2022/11/30 07:34:42;;;;;;;72.60;33.22;;;6.10;99.90;;;;;;5030597;28;20323;-66
2022/11/30 07:37:07;;;;;;;72.03;32.00;;;6.10;99.90;;;;;;4981297;28;20058;-64
2022/11/30 07:39:33;;;;;;;65.40;30.10;;;6.10;99.90;;;;;;5014310;28;20455;-64
2022/11/30 07:41:59;;;;;;;68.35;31.95;;;6.10;99.90;;;;;;5030248;28;20045;-64
2022/11/30 07:44:25;;;;;;;72.53;31.77;;;6.10;99.90;;;;;;5030637;28;20049;-65
2022/11/30 07:46:51;;;;;;;72.45;33.13;;;6.10;99.90;;;;;;4997643;28;20041;-65
2022/11/30 07:49:16;;;;;;;73.03;31.35;;;6.10;99.90;;;;;;5013378;28;20053;-66
2022/11/30 07:51:42;;;;;;;74.25;32.38;;;6.10;99.90;;;;;;5030511;28;20053;-65
2022/11/30 07:54:08;;;;;;;66.53;29.98;;;6.10;99.90;;;;;;4996755;28;20133;-65
2022/11/30 07:56:34;;;;;;;71.90;33.13;;;6.10;99.90;;;;;;5028485;28;20060;-65
2022/11/30 07:59:00;;;;;;;71.20;31.75;;;6.10;99.90;;;;;;5026918;28;20057;-66
2022/11/30 08:01:27;;;;;;;68.65;30.25;;;6.10;99.90;;;;;;5031241;28;20041;-65
2022/11/30 08:03:53;;;;;;;74.73;33.67;;;6.10;99.90;;;;;;4993788;28;20132;-66
2022/11/30 08:06:20;;;;;;;65.15;30.05;;;6.10;99.90;;;;;;5010465;28;20132;-66
2022/11/30 08:08:47;;;;;;;70.45;32.70;;;6.10;99.90;;;;;;4980975;28;20128;-64
2022/11/30 08:11:15;;;;;;;70.65;32.65;;;6.20;99.90;;;;;;5030878;28;20132;-65
2022/11/30 08:13:41;;;;;;;71.32;33.30;;;6.10;99.90;;;;;;5029206;28;20045;-65
2022/11/30 08:16:09;;;;;;;70.35;31.27;;;6.10;99.90;;;;;;5010432;28;20601;-65
2022/11/30 08:18:35;;;;;;;69.05;32.08;;;6.10;99.90;;;;;;5013185;28;20060;-64
2022/11/30 08:21:02;;;;;;;66.43;31.10;;;6.10;99.90;;;;;;5030541;28;20052;-65
2022/11/30 08:23:39;;;;;;;60.90;28.98;;;6.20;99.90;;;;;;5012317;28;20095;-65
2022/11/30 08:26:09;;;;;;;63.88;30.92;;;6.20;99.90;;;;;;5028844;28;20124;-65
2022/11/30 08:28:38;;;;;;;69.82;32.88;;;6.20;99.90;;;;;;5012816;28;20124;-65
2022/11/30 08:31:05;;;;;;;69.60;32.17;;;6.20;99.90;;;;;;4982142;28;20068;-65
2022/11/30 08:33:32;;;;;;;70.50;32.85;;;6.20;99.90;;;;;;5011598;28;20266;-65
2022/11/30 08:36:11;;;;;;;78.78;34.75;;;6.20;99.90;;;;;;4994862;28;20068;-66
2022/11/30 08:38:37;;;;;;;70.03;33.08;;;6.20;99.90;;;;;;5012670;28;20057;-66
2022/11/30 08:41:04;;;;;;;72.60;34.03;;;6.20;99.90;;;;;;4980513;28;20531;-65
2022/11/30 08:43:30;;;;;;;77.72;34.50;;;6.20;99.90;;;;;;4995435;28;20051;-65
2022/11/30 08:45:56;;;;;;;71.63;32.75;;;6.20;99.90;;;;;;5029447;28;20045;-65
2022/11/30 08:48:22;;;;;;;64.60;29.63;;;6.20;99.90;;;;;;5013425;28;20085;-64
2022/11/30 08:50:47;;;;;;;67.10;30.90;;;6.20;99.90;;;;;;4997168;28;20049;-65
2022/11/30 08:53:13;;;;;;;72.75;33.70;;;6.20;99.90;;;;;;5005241;28;20123;-65
2022/11/30 08:55:39;;;;;;;65.85;30.83;;;6.30;99.90;;;;;;5010264;28;20365;-65
2022/11/30 08:58:05;;;;;;;74.22;33.90;;;6.30;99.90;;;;;;5009343;28;20383;-65
2022/11/30 09:00:30;;;;;;;74.47;31.42;;;6.30;99.90;;;;;;5012722;28;20045;-65
2022/11/30 09:02:56;;;;;;;78.28;35.38;;;6.20;99.90;;;;;;4996636;28;20348;-65
2022/11/30 09:05:22;;;;;;;75.43;32.72;;;6.30;99.90;;;;;;5023553;28;20049;-65
2022/11/30 09:07:47;;;;;;;79.25;35.35;;;6.30;99.90;;;;;;5013003;28;20049;-65
2022/11/30 09:10:13;;;;;;;72.93;32.35;;;6.30;99.90;;;;;;5025465;28;20050;-65
2022/11/30 09:12:39;;;;;;;77.10;34.72;;;6.30;99.90;;;;;;5010802;28;20387;-65
2022/11/30 09:15:06;;;;;;;78.43;34.80;;;6.30;99.90;;;;;;5012520;28;20382;-65
2022/11/30 09:17:32;;;;;;;77.30;34.50;;;6.30;99.90;;;;;;5030141;28;20124;-65
2022/11/30 09:19:58;;;;;;;74.93;32.70;;;6.30;99.90;;;;;;5028392;28;20060;-65
2022/11/30 09:22:24;;;;;;;79.80;36.58;;;6.30;99.90;;;;;;4990527;28;20504;-65
2022/11/30 09:24:50;;;;;;;77.35;35.33;;;6.30;99.90;;;;;;5009043;28;20042;-64
2022/11/30 09:27:16;;;;;;;73.90;34.00;;;6.30;99.90;;;;;;5010594;28;20045;-66
2022/11/30 09:29:42;;;;;;;77.45;33.92;;;6.30;99.90;;;;;;5028875;28;20478;-65
2022/11/30 09:32:07;;;;;;;76.60;34.50;;;6.30;99.90;;;;;;5028818;28;20134;-65
2022/11/30 09:34:33;;;;;;;69.15;31.17;;;6.30;99.90;;;;;;5009079;28;20049;-65
2022/11/30 09:36:59;;;;;;;74.45;35.67;;;6.30;99.90;;;;;;5027725;28;20065;-66
2022/11/30 09:39:25;;;;;;;78.03;34.95;;;6.30;99.90;;;;;;5012079;28;20049;-65
2022/11/30 09:42:27;;;;;;;83.05;34.00;;;6.30;99.90;;;;;;4993839;28;20124;-65
2022/11/30 09:44:57;;;;;;;74.93;33.22;;;6.30;99.90;;;;;;5023782;28;20139;-64
2022/11/30 09:47:37;;;;;;;76.40;34.17;;;6.30;99.90;;;;;;5010202;28;20046;-65
2022/11/30 09:50:10;;;;;;;83.63;37.20;;;6.40;99.90;;;;;;4996642;28;20049;-64
2022/11/30 09:52:38;;;;;;;84.80;34.63;;;6.30;99.90;;;;;;4992931;28;20053;-65
2022/11/30 09:55:08;;;;;;;72.97;32.65;;;6.30;99.90;;;;;;5005719;28;20060;-65
2022/11/30 09:57:47;;;;;;;77.78;34.97;;;6.40;99.90;;;;;;4991175;28;20132;-65
2022/11/30 10:00:18;;;;;;;78.15;33.97;;;6.40;99.90;;;;;;5010422;28;20612;-66
2022/11/30 10:02:44;;;;;;;70.22;30.75;;;6.40;99.90;;;;;;5009435;28;20839;-65
2022/11/30 10:05:27;;;;;;;76.20;33.88;;;6.40;99.90;;;;;;4992256;28;20049;-65
2022/11/30 10:08:12;;;;;;;77.55;33.78;;;6.40;99.90;;;;;;4996125;28;20037;-65
2022/11/30 10:10:51;;;;;;;72.80;32.83;;;6.40;99.90;;;;;;5025690;28;20045;-65
2022/11/30 10:13:55;;;;;;;74.28;34.08;;;6.40;99.90;;;;;;5011787;28;20053;-65
2022/11/30 10:16:49;;;;;;;77.20;34.00;;;6.40;99.90;;;;;;5025006;28;20055;-65
2022/11/30 10:19:17;;;;;;;78.70;35.55;;;6.40;99.90;;;;;;5019725;28;20037;-66
2022/11/30 10:22:01;;;;;;;;;;;6.40;99.90;;;;;;5028483;28;20132;-65
2022/11/30 10:24:29;;;;;;;75.05;33.30;;;6.50;99.90;;;;;;5022615;28;19967;-65
2022/11/30 10:26:56;;;;;;;74.78;33.15;;;6.40;99.90;;;;;;5027802;28;20115;-64
2022/11/30 10:29:34;;;;;;;70.63;32.58;;;6.50;99.90;;;;;;5010619;28;20884;-66
2022/11/30 10:32:01;;;;;;;74.82;34.97;;;6.40;99.90;;;;;;4995262;28;20052;-65
2022/11/30 10:34:34;;;;;;;78.68;33.08;;;6.40;99.90;;;;;;5011755;28;20053;-64
2022/11/30 10:37:02;;;;;;;71.32;32.63;;;6.40;99.90;;;;;;5027121;28;20128;-64
2022/11/30 10:39:46;;;;;;;66.60;31.35;;;6.40;99.90;;;;;;5006473;28;20088;-64
2022/11/30 10:42:42;;;;;;;67.93;30.73;;;6.40;99.90;;;;;;4997710;28;20041;-65
2022/11/30 10:45:12;;;;;;;61.53;29.23;;;6.40;99.90;;;;;;4995262;28;20037;-65
2022/11/30 10:48:11;;;;;;;65.38;31.13;;;6.50;99.90;;;;;;5007808;28;20130;-65
2022/11/30 10:50:36;;;;;;;65.13;32.00;;;6.40;99.90;;;;;;5026388;28;20133;-64
2022/11/30 10:53:02;;;;;;;69.50;33.35;;;6.50;99.90;;;;;;4978948;28;20152;-65
2022/11/30 10:55:35;;;;;;;68.00;32.22;;;6.50;99.90;;;;;;5004922;28;20089;-64
2022/11/30 10:58:19;;;;;;;60.10;29.48;;;6.40;99.90;;;;;;5010739;28;20053;-64
2022/11/30 11:00:57;;;;;;;67.07;32.92;;;6.50;99.90;;;;;;5028285;28;20056;-64
2022/11/30 11:03:24;;;;;;;68.38;32.22;;;6.50;99.90;;;;;;5006547;28;20045;-63
2022/11/30 11:06:26;;;;;;;57.80;29.17;;;6.50;99.90;;;;;;5011083;28;20076;-65
2022/11/30 11:08:52;;;;;;;61.58;30.45;;;6.50;99.90;;;;;;5007374;28;20077;-65
2022/11/30 11:11:33;;;;;;;61.40;31.92;;;6.50;99.90;;;;;;5008164;28;20099;-65
2022/11/30 11:14:25;;;;;;;55.50;29.00;;;6.50;99.90;;;;;;4995423;28;20124;-65
2022/11/30 11:16:59;;;;;;;56.45;30.02;;;6.50;99.90;;;;;;5028009;28;20362;-65
2022/11/30 11:19:33;;;;;;;66.43;31.52;;;6.50;99.90;;;;;;4994945;28;20095;-65
2022/11/30 11:22:04;;;;;;;59.33;31.55;;;6.50;99.90;;;;;;5025179;28;20052;-65
2022/11/30 11:24:30;;;;;;;70.07;32.35;;;6.50;99.90;;;;;;4998153;28;20042;-65
2022/11/30 11:26:56;;;;;;;63.42;31.65;;;6.50;99.90;;;;;;5026994;28;20053;-65
2022/11/30 11:29:33;;;;;;;64.03;29.38;;;6.50;99.90;;;;;;4998571;28;20095;-65
2022/11/30 11:32:20;;;;;;;66.45;32.72;;;6.50;99.90;;;;;;5031344;28;20183;-65
2022/11/30 11:34:46;;;;;;;61.10;30.83;;;6.50;99.90;;;;;;4999244;28;20371;-64
2022/11/30 11:37:32;;;;;;;63.53;31.10;;;6.50;99.90;;;;;;5024721;28;20062;-64
2022/11/30 11:40:04;;;;;;;62.63;30.27;;;6.50;99.90;;;;;;5013751;28;20088;-64
2022/11/30 11:42:35;;;;;;;63.08;31.52;;;6.50;99.90;;;;;;5008494;28;20103;-65
2022/11/30 11:45:01;;;;;;;66.40;31.38;;;6.40;99.90;;;;;;5009023;28;20045;-65
2022/11/30 11:47:39;;;;;;;65.95;30.70;;;6.50;99.90;;;;;;4998167;28;20037;-65
2022/11/30 11:50:11;;;;;;;64.75;30.17;;;6.50;99.90;;;;;;5011550;28;20050;-66
2022/11/30 11:52:37;;;;;;;59.25;30.13;;;6.50;99.90;;;;;;5030544;28;20055;-65
2022/11/30 11:55:12;;;;;;;66.13;32.72;;;6.50;99.90;;;;;;5030200;28;20041;-65
2022/11/30 11:58:05;;;;;;;69.97;34.20;;;6.50;99.90;;;;;;5023550;28;20054;-66
2022/11/30 12:00:31;;;;;;;67.65;33.13;;;6.50;99.90;;;;;;5028090;28;20075;-65
2022/11/30 12:03:02;;;;;;;66.68;33.58;;;6.40;99.90;;;;;;5014109;28;20046;-65
2022/11/30 12:05:43;;;;;;;66.20;31.33;;;6.50;99.90;;;;;;5013748;28;20048;-65
2022/11/30 12:08:42;;;;;;;72.75;33.55;;;6.50;99.90;;;;;;5014517;28;20128;-65
2022/11/30 12:11:11;;;;;;;77.97;34.35;;;6.50;99.90;;;;;;5030032;28;20140;-64
2022/11/30 12:13:38;;;;;;;75.35;33.40;;;6.50;99.90;;;;;;5029782;28;20061;-65
2022/11/30 12:16:13;;;;;;;72.50;31.92;;;6.50;99.90;;;;;;4993120;28;20053;-65
2022/11/30 12:18:50;;;;;;;85.43;35.78;;;6.50;99.90;;;;;;5031373;28;20533;-65
2022/11/30 12:21:28;;;;;;;78.33;32.40;;;6.50;99.90;;;;;;5011763;28;20053;-65
2022/11/30 12:24:08;;;;;;;88.80;37.08;;;6.50;99.90;;;;;;5026597;28;20068;-65
2022/11/30 12:26:46;;;;;;;86.07;33.92;;;6.50;99.90;;;;;;5029312;28;20472;-65
2022/11/30 12:29:23;;;;;;;89.20;34.85;;;6.50;99.90;;;;;;5027886;28;20084;-65
2022/11/30 12:32:25;;;;;;;98.03;36.38;;;6.50;99.90;;;;;;4981092;28;20041;-65
2022/11/30 12:35:16;;;;;;;92.55;35.65;;;6.50;99.90;;;;;;5009857;28;20119;-65
2022/11/30 12:37:54;;;;;;;94.65;36.00;;;6.50;99.90;;;;;;5013772;28;20231;-66
2022/11/30 12:40:47;;;;;;;91.18;37.10;;;6.50;99.90;;;;;;5025194;28;20056;-65
2022/11/30 12:43:37;;;;;;;103.05;39.78;;;6.50;99.90;;;;;;5028914;28;20132;-66
2022/11/30 12:46:14;;;;;;;107.25;39.90;;;6.50;99.90;;;;;;5030457;28;20094;-65
2022/11/30 12:49:03;;;;;;;108.00;38.88;;;6.50;99.90;;;;;;4988868;28;20041;-65
2022/11/30 12:51:34;;;;;;;91.30;37.58;;;6.50;99.90;;;;;;5029771;28;20038;-65
2022/11/30 12:54:21;;;;;;;91.05;35.72;;;6.50;99.90;;;;;;5010594;28;20437;-66